Time;durP1;ratioP1;P1;durP2;ratioP2;P2;SDS_P1;SDS_P2;PMS_P1;PMS_P2;Temp;Humidity;BMP_temperature;BMP_pressure;BME280_temperature;BME280_humidity;BME280_pressure;Samples;Min_cycle;Max_cycle;Signal;HPM_P1;HPM_P2
2022/01/21 00:01:18;;;;;;;14.48;2.30;;;1.70;99.90;;;;;;5119732;27;19922;-74
2022/01/21 00:03:44;;;;;;;;;;;3.00;99.90;;;;;;5112669;27;20043;-74
2022/01/21 00:06:10;;;;;;;18.30;3.00;;;2.80;99.90;;;;;;5110160;27;20255;-74
2022/01/21 00:08:38;;;;;;;13.95;2.20;;;2.40;99.90;;;;;;5119217;27;20039;-74
2022/01/21 00:11:04;;;;;;;13.63;2.65;;;2.50;99.90;;;;;;5110111;27;20047;-74
2022/01/21 00:13:33;;;;;;;12.82;2.15;;;2.60;99.90;;;;;;5112433;27;20447;-73
2022/01/21 00:16:10;;;;;;;15.10;1.90;;;2.70;99.90;;;;;;5116209;27;20052;-74
2022/01/21 00:18:38;;;;;;;12.63;1.83;;;2.80;99.90;;;;;;5132478;27;20035;-74
2022/01/21 00:32:06;;;;;;;15.20;2.40;;;4.20;99.90;;;;;;5116047;27;20451;-74
2022/01/21 00:34:32;;;;;;;13.15;2.08;;;2.90;99.90;;;;;;5095221;27;20282;-74
2022/01/21 00:36:58;;;;;;;10.60;1.95;;;3.30;99.90;;;;;;5111032;27;20090;-74
2022/01/21 00:39:27;;;;;;;8.55;1.98;;;2.80;99.90;;;;;;5111335;27;20035;-75
2022/01/21 00:42:33;;;;;;;13.00;1.70;;;2.70;99.90;;;;;;5124611;27;20074;-74
2022/01/21 00:44:39;;;;;;;11.23;1.57;;;2.70;99.90;;;;;;5122523;27;20489;-74
2022/01/21 00:47:06;;;;;;;11.35;2.13;;;2.60;99.90;;;;;;5110757;27;20062;-74
2022/01/21 00:49:31;;;;;;;10.57;1.73;;;2.60;99.90;;;;;;5121690;27;20042;-74
2022/01/21 00:51:57;;;;;;;10.07;1.80;;;2.50;99.90;;;;;;5110864;27;20031;-74
2022/01/21 00:54:23;;;;;;;12.07;1.80;;;2.50;99.90;;;;;;5094206;27;20027;-74
2022/01/21 00:56:49;;;;;;;15.88;1.90;;;2.40;99.90;;;;;;5114178;27;20070;-74
2022/01/21 00:59:14;;;;;;;7.25;1.80;;;3.30;99.90;;;;;;5122657;27;20034;-74
2022/01/21 01:01:41;;;;;;;10.65;1.90;;;3.40;99.90;;;;;;5112493;27;20035;-74
2022/01/21 01:04:06;;;;;;;13.07;1.75;;;2.30;99.90;;;;;;5110869;27;20039;-74
2022/01/21 01:06:32;;;;;;;10.52;1.70;;;2.30;99.90;;;;;;5120091;27;20116;-74
2022/01/21 01:08:58;;;;;;;11.32;1.63;;;2.30;99.90;;;;;;5114100;27;20042;-74
2022/01/21 01:22:07;;;;;;;9.40;1.60;;;2.30;99.90;;;;;;5110154;27;20070;-74
2022/01/21 01:29:59;;;;;;;9.93;1.60;;;2.40;99.90;;;;;;5128555;27;20046;-74
2022/01/21 01:32:28;;;;;;;6.05;1.48;;;2.40;99.90;;;;;;5110644;27;20027;-74
2022/01/21 01:34:54;;;;;;;7.22;1.40;;;3.50;99.90;;;;;;5110474;27;20034;-74
2022/01/21 01:40:19;;;;;;;7.45;1.50;;;2.50;99.90;;;;;;5093941;27;20054;-74
2022/01/21 01:50:50;;;;;;;8.80;1.50;;;2.50;99.90;;;;;;5110176;27;20046;-74
2022/01/21 01:53:17;;;;;;;10.02;1.50;;;2.50;99.90;;;;;;5111306;27;20039;-74
2022/01/21 01:55:44;;;;;;;6.03;1.08;;;2.40;99.90;;;;;;5094586;27;20375;-74
2022/01/21 01:58:12;;;;;;;;;;;2.50;99.90;;;;;;5109137;27;20034;-74
2022/01/21 02:00:38;;;;;;;8.57;1.13;;;2.70;99.90;;;;;;5110202;27;19964;-74
2022/01/21 02:03:06;;;;;;;4.18;1.25;;;3.30;99.90;;;;;;5093092;27;20452;-74
2022/01/21 02:05:32;;;;;;;4.35;0.75;;;2.60;99.90;;;;;;5122823;27;20133;-74
2022/01/21 02:07:57;;;;;;;2.75;0.95;;;2.70;99.90;;;;;;5130428;27;20599;-74
2022/01/21 02:10:23;;;;;;;8.05;1.13;;;2.80;99.90;;;;;;5112707;27;20175;-74
2022/01/21 02:12:49;;;;;;;11.43;1.35;;;2.90;99.90;;;;;;5112731;27;20390;-74
2022/01/21 02:15:15;;;;;;;4.10;1.00;;;4.00;99.90;;;;;;5093096;27;20031;-74
2022/01/21 02:22:51;;;;;;;6.60;1.00;;;2.80;99.90;;;;;;5110234;28;20292;-74
2022/01/21 02:25:19;;;;;;;9.90;1.30;;;2.70;99.90;;;;;;5110171;28;20044;-74
2022/01/21 02:27:57;;;;;;;6.03;1.20;;;2.70;99.90;;;;;;5110555;28;20151;-74
2022/01/21 02:30:24;;;;;;;5.40;1.23;;;2.70;99.90;;;;;;5117509;27;20064;-74
2022/01/21 02:32:55;;;;;;;4.47;1.20;;;2.60;99.90;;;;;;5130920;27;20042;-74
2022/01/21 02:35:23;;;;;;;6.78;1.20;;;2.60;99.90;;;;;;5100682;27;20106;-74
2022/01/21 02:37:49;;;;;;;2.92;1.02;;;3.20;99.90;;;;;;5120390;27;20046;-74
2022/01/21 02:40:16;;;;;;;5.28;1.10;;;2.50;99.90;;;;;;5123132;27;20044;-74
2022/01/21 02:42:42;;;;;;;3.55;0.70;;;2.50;99.90;;;;;;5116781;27;20490;-74
2022/01/21 02:45:10;;;;;;;5.10;1.20;;;2.50;99.90;;;;;;5130658;27;20126;-74
2022/01/21 02:47:36;;;;;;;5.55;1.15;;;2.50;99.90;;;;;;5108878;27;20107;-74
2022/01/21 02:50:04;;;;;;;4.20;0.90;;;2.80;99.90;;;;;;5130286;27;20047;-74
2022/01/21 02:52:40;;;;;;;10.30;1.45;;;2.60;99.90;;;;;;5130836;27;20543;-74
2022/01/21 02:55:07;;;;;;;5.75;0.90;;;3.80;99.90;;;;;;5113262;27;20486;-74
2022/01/21 02:57:33;;;;;;;7.38;1.20;;;2.60;99.90;;;;;;5121450;27;20376;-74
2022/01/21 02:59:58;;;;;;;5.28;0.90;;;2.60;99.90;;;;;;5116880;27;20092;-74
2022/01/21 03:02:24;;;;;;;4.17;0.80;;;2.60;99.90;;;;;;5119002;27;20032;-74
2022/01/21 03:07:15;;;;;;;2.33;0.70;;;2.50;99.90;;;;;;5130319;27;20045;-74
2022/01/21 03:09:41;;;;;;;6.30;0.80;;;2.50;99.90;;;;;;5110734;27;20280;-74
2022/01/21 03:12:07;;;;;;;2.00;0.60;;;2.40;99.90;;;;;;5129571;27;20031;-74
2022/01/21 03:14:33;;;;;;;3.50;0.75;;;2.40;99.90;;;;;;5130088;27;20039;-74
2022/01/21 03:16:59;;;;;;;6.72;0.93;;;2.60;99.90;;;;;;5124085;27;20070;-74
2022/01/21 03:19:25;;;;;;;7.30;0.85;;;3.30;99.90;;;;;;5112757;27;20034;-74
2022/01/21 03:21:51;;;;;;;3.17;0.80;;;2.30;99.90;;;;;;5113014;27;20134;-74
2022/01/21 03:24:17;;;;;;;3.97;0.80;;;2.30;99.90;;;;;;5129705;27;20046;-74
2022/01/21 03:26:42;;;;;;;5.60;0.73;;;2.30;99.90;;;;;;5089506;28;20035;-74
2022/01/21 03:29:08;;;;;;;6.13;0.70;;;2.30;99.90;;;;;;5090326;27;20773;-74
2022/01/21 03:31:34;;;;;;;5.07;0.85;;;2.20;99.90;;;;;;5121174;27;20305;-74
2022/01/21 03:34:01;;;;;;;4.40;0.80;;;2.20;99.90;;;;;;5109346;27;20032;-74
2022/01/21 03:36:28;;;;;;;4.35;0.85;;;2.20;99.90;;;;;;5112648;27;20039;-74
2022/01/21 03:38:54;;;;;;;4.47;0.90;;;2.40;99.90;;;;;;5109350;27;20399;-74
2022/01/21 03:41:20;;;;;;;5.03;1.02;;;2.30;99.90;;;;;;5115444;27;20043;-74
2022/01/21 03:43:47;;;;;;;3.15;0.85;;;2.30;99.90;;;;;;5129542;27;20394;-74
2022/01/21 03:46:13;;;;;;;5.53;0.98;;;2.20;99.90;;;;;;5129295;27;20038;-74
2022/01/21 03:48:39;;;;;;;2.47;0.82;;;2.20;99.90;;;;;;5129938;27;20039;-74
2022/01/21 03:51:05;;;;;;;7.93;0.98;;;2.10;99.90;;;;;;5112820;27;20463;-74
2022/01/21 03:53:31;;;;;;;3.53;0.85;;;2.10;99.90;;;;;;5112541;27;20027;-74
2022/01/21 03:55:56;;;;;;;4.60;0.90;;;2.10;99.90;;;;;;5115546;27;20047;-74
2022/01/21 03:58:22;;;;;;;4.38;0.90;;;1.80;99.90;;;;;;5112498;27;20386;-74
2022/01/21 04:00:54;;;;;;;5.40;0.90;;;1.70;99.90;;;;;;5109779;27;20077;-74
2022/01/21 04:03:21;;;;;;;4.57;1.60;;;1.60;99.90;;;;;;5123847;27;20101;-73
2022/01/21 04:05:47;;;;;;;3.97;0.80;;;1.70;99.90;;;;;;5091784;27;20039;-74
2022/01/21 04:08:14;;;;;;;5.97;1.02;;;1.50;99.90;;;;;;5106825;28;20050;-74
2022/01/21 04:10:41;;;;;;;6.25;1.27;;;1.50;99.90;;;;;;5121778;27;20104;-74
2022/01/21 04:13:14;;;;;;;7.32;0.90;;;1.40;99.90;;;;;;5112352;27;20133;-74
2022/01/21 04:15:41;;;;;;;6.78;0.80;;;1.40;99.90;;;;;;5114821;27;20031;-74
2022/01/21 04:18:07;;;;;;;3.28;0.90;;;1.30;99.90;;;;;;5091951;28;20437;-74
2022/01/21 04:20:32;;;;;;;3.70;1.00;;;1.30;99.90;;;;;;5125096;27;20043;-74
2022/01/21 04:22:58;;;;;;;4.63;1.10;;;1.80;99.90;;;;;;5111642;27;20050;-73
2022/01/21 04:25:24;;;;;;;5.63;1.00;;;1.30;99.90;;;;;;5109773;27;20071;-74
2022/01/21 04:27:50;;;;;;;9.30;1.20;;;1.30;99.90;;;;;;5074487;28;20043;-74
2022/01/21 04:30:15;;;;;;;11.15;1.67;;;1.10;99.90;;;;;;5119931;27;20462;-74
2022/01/21 04:32:41;;;;;;;6.20;1.13;;;1.10;99.90;;;;;;5115861;27;20111;-74
2022/01/21 04:35:08;;;;;;;8.63;1.40;;;1.10;99.90;;;;;;5128635;27;20031;-74
2022/01/21 04:37:36;;;;;;;12.73;1.50;;;1.00;99.90;;;;;;5118966;27;20035;-74
2022/01/21 04:40:09;;;;;;;9.35;1.38;;;1.00;99.90;;;;;;5125076;27;20043;-74
2022/01/21 04:48:05;;;;;;;8.27;1.58;;;1.10;99.90;;;;;;5122912;27;20140;-74
2022/01/21 04:50:39;;;;;;;;;;;1.10;99.90;;;;;;5125499;27;20285;-74
2022/01/21 04:53:06;;;;;;;11.77;1.45;;;1.40;99.90;;;;;;5107554;28;19968;-74
2022/01/21 04:55:34;;;;;;;6.95;1.52;;;1.10;99.90;;;;;;5107364;28;20067;-74
2022/01/21 04:57:59;;;;;;;10.85;1.40;;;1.30;99.90;;;;;;5108343;27;20032;-74
2022/01/21 05:00:25;;;;;;;12.77;1.50;;;1.10;99.90;;;;;;5090383;28;20134;-74
2022/01/21 05:02:51;;;;;;;6.45;1.40;;;1.10;99.90;;;;;;5107805;28;20113;-74
2022/01/21 05:05:16;;;;;;;7.95;1.30;;;1.10;99.90;;;;;;5107353;28;20483;-74
2022/01/21 05:07:42;;;;;;;9.02;1.40;;;1.10;99.90;;;;;;5090714;28;20067;-74
2022/01/21 05:10:09;;;;;;;6.57;1.20;;;1.20;99.90;;;;;;5090627;28;20084;-74
2022/01/21 05:12:35;;;;;;;9.93;1.50;;;1.20;99.90;;;;;;5105212;28;20399;-75
2022/01/21 05:17:28;;;;;;;8.65;1.45;;;2.00;99.90;;;;;;5096524;27;20122;-77
2022/01/21 05:19:54;;;;;;;6.90;1.00;;;2.10;99.90;;;;;;5110541;27;20040;-77
2022/01/21 05:22:20;;;;;;;10.23;1.27;;;1.30;99.90;;;;;;5106976;28;20070;-77
2022/01/21 05:24:46;;;;;;;8.63;1.50;;;3.80;99.90;;;;;;5124407;27;20047;-77
2022/01/21 05:27:13;;;;;;;5.80;1.00;;;3.40;99.90;;;;;;5118837;27;20058;-76
2022/01/21 05:29:40;;;;;;;4.70;1.05;;;1.50;99.90;;;;;;5105571;28;20074;-76
2022/01/21 05:32:06;;;;;;;;;;;3.00;99.90;;;;;;5111094;27;20112;-76
2022/01/21 05:34:32;;;;;;;5.93;1.17;;;1.50;99.90;;;;;;5127364;27;19915;-77
2022/01/21 05:36:58;;;;;;;5.50;1.10;;;1.50;99.90;;;;;;5123616;27;20035;-76
2022/01/21 05:39:24;;;;;;;8.50;1.13;;;2.30;99.90;;;;;;5106295;28;20042;-76
2022/01/21 05:41:51;;;;;;;7.03;0.98;;;3.20;99.90;;;;;;5122693;27;20035;-76
2022/01/21 05:46:23;;;;;;;8.77;1.25;;;1.70;99.90;;;;;;5118155;27;20038;-76
2022/01/21 05:47:08;;;;;;;7.20;1.13;;;2.80;99.90;;;;;;5110645;28;20071;-76
2022/01/21 05:49:36;;;;;;;6.53;1.23;;;1.40;99.90;;;;;;5109246;28;20483;-76
2022/01/21 05:52:06;;;;;;;6.97;1.00;;;1.40;99.90;;;;;;5107742;28;20039;-76
2022/01/21 05:54:33;;;;;;;8.10;1.23;;;1.40;99.90;;;;;;5108717;27;20027;-75
2022/01/21 05:57:00;;;;;;;;;;;2.20;99.90;;;;;;5122440;27;20454;-76
2022/01/21 05:59:26;;;;;;;9.20;1.70;;;1.40;99.90;;;;;;5111174;28;19998;-76
2022/01/21 06:01:52;;;;;;;15.68;2.13;;;3.10;99.90;;;;;;5111274;28;20452;-75
2022/01/21 06:04:18;;;;;;;10.88;1.55;;;1.60;99.90;;;;;;5111115;28;20468;-75
2022/01/21 06:06:44;;;;;;;9.88;1.70;;;2.40;99.90;;;;;;5116323;27;20062;-76
2022/01/21 06:09:09;;;;;;;11.60;1.73;;;2.00;99.90;;;;;;5072215;28;20063;-75
2022/01/21 06:11:35;;;;;;;10.15;1.45;;;2.30;99.90;;;;;;5110708;28;20046;-76
2022/01/21 06:14:02;;;;;;;7.35;1.40;;;3.50;99.90;;;;;;5111265;27;20046;-75
2022/01/21 06:16:29;;;;;;;7.00;1.60;;;4.20;99.90;;;;;;5110841;28;20061;-75
2022/01/21 06:18:55;;;;;;;9.18;1.45;;;3.10;99.90;;;;;;5094546;28;20046;-75
2022/01/21 06:21:21;;;;;;;10.80;1.90;;;2.70;99.90;;;;;;5117223;27;20559;-76
2022/01/21 06:23:47;;;;;;;8.60;1.60;;;2.60;99.90;;;;;;5103296;27;20130;-76
2022/01/21 06:26:13;;;;;;;9.00;1.25;;;4.30;99.90;;;;;;5130667;27;20126;-76
2022/01/21 06:28:39;;;;;;;7.75;1.10;;;3.40;99.90;;;;;;5117374;27;20043;-76
2022/01/21 06:31:05;;;;;;;9.95;1.50;;;3.90;99.90;;;;;;5109162;27;20047;-76
2022/01/21 06:33:31;;;;;;;6.47;1.30;;;2.20;99.90;;;;;;5132464;27;20039;-76
2022/01/21 06:35:57;;;;;;;8.73;1.20;;;3.60;99.90;;;;;;5097703;27;20092;-76
2022/01/21 06:38:23;;;;;;;10.35;1.20;;;2.70;99.90;;;;;;5097137;27;20412;-75
2022/01/21 06:40:50;;;;;;;7.97;1.60;;;3.10;99.90;;;;;;5095725;27;20043;-75
2022/01/21 06:43:17;;;;;;;9.07;1.63;;;2.00;99.90;;;;;;5152260;27;20035;-75
2022/01/21 06:45:43;;;;;;;11.45;1.20;;;3.00;99.90;;;;;;5134042;27;20390;-76
2022/01/21 06:48:09;;;;;;;9.13;1.67;;;3.50;99.90;;;;;;5134515;27;20083;-76
2022/01/21 06:50:40;;;;;;;10.15;1.40;;;2.90;99.90;;;;;;5117089;27;20031;-76
2022/01/21 06:53:07;;;;;;;9.35;1.60;;;1.70;99.90;;;;;;5153047;27;20558;-75
2022/01/21 06:55:33;;;;;;;11.68;1.60;;;3.20;99.90;;;;;;5132359;27;20030;-76
2022/01/21 06:57:59;;;;;;;6.45;1.40;;;1.60;99.90;;;;;;5117314;27;20389;-76
2022/01/21 07:00:24;;;;;;;14.95;1.50;;;2.00;99.90;;;;;;5152610;27;20037;-76
2022/01/21 07:02:53;;;;;;;8.57;1.40;;;2.30;99.90;;;;;;5116833;27;20399;-76
2022/01/21 07:05:22;;;;;;;10.10;1.83;;;2.80;99.90;;;;;;5152980;27;20033;-76
2022/01/21 07:07:48;;;;;;;10.40;1.45;;;1.40;99.90;;;;;;5131363;27;20035;-76
2022/01/21 07:10:15;;;;;;;6.75;1.67;;;1.90;99.90;;;;;;5140559;27;20023;-76
2022/01/21 07:12:42;;;;;;;6.93;1.50;;;2.40;99.90;;;;;;5112926;27;20088;-75
2022/01/21 07:15:09;;;;;;;9.10;1.60;;;1.30;99.90;;;;;;5096702;27;20070;-73
2022/01/21 07:17:35;;;;;;;9.40;1.20;;;1.30;99.90;;;;;;5139380;27;20384;-75
2022/01/21 07:20:02;;;;;;;8.77;1.20;;;2.40;99.90;;;;;;5121282;27;20122;-73
2022/01/21 07:22:28;;;;;;;16.08;1.80;;;1.20;99.90;;;;;;5131714;27;20047;-74
2022/01/21 07:24:54;;;;;;;11.05;1.30;;;1.20;99.90;;;;;;5133851;27;20414;-73
2022/01/21 07:27:20;;;;;;;10.82;1.20;;;1.20;99.90;;;;;;5127491;27;20122;-74
2022/01/21 07:29:45;;;;;;;8.63;1.42;;;1.20;99.90;;;;;;5120511;27;20436;-74
2022/01/21 07:32:11;;;;;;;8.13;1.45;;;1.00;99.90;;;;;;5114545;27;20039;-73
2022/01/21 07:34:37;;;;;;;7.93;1.60;;;1.10;99.90;;;;;;5113404;27;20031;-74
2022/01/21 07:37:03;;;;;;;16.02;1.80;;;1.20;99.90;;;;;;5114164;27;20276;-74
2022/01/21 07:39:29;;;;;;;10.75;1.80;;;1.20;99.90;;;;;;5112376;27;20031;-74
2022/01/21 07:41:55;;;;;;;13.15;1.80;;;1.20;99.90;;;;;;5112449;27;20043;-74
2022/01/21 07:44:21;;;;;;;14.82;2.25;;;1.20;99.90;;;;;;5112823;27;20074;-74
2022/01/21 07:46:47;;;;;;;18.20;2.38;;;1.20;99.90;;;;;;5124474;27;20499;-74
2022/01/21 07:49:15;;;;;;;12.38;1.90;;;2.10;99.90;;;;;;5113328;27;20488;-74
2022/01/21 07:51:41;;;;;;;10.02;2.00;;;1.30;99.90;;;;;;5111683;27;20039;-74
2022/01/21 07:54:07;;;;;;;11.48;1.67;;;1.20;99.90;;;;;;5113851;27;20038;-74
2022/01/21 07:56:34;;;;;;;11.40;2.05;;;1.30;99.90;;;;;;5112236;27;20043;-74
2022/01/21 07:59:01;;;;;;;13.45;2.33;;;1.30;99.90;;;;;;5110206;27;20475;-74
2022/01/21 08:01:27;;;;;;;14.50;2.20;;;1.40;99.90;;;;;;5120159;27;20095;-74
2022/01/21 08:03:53;;;;;;;16.65;1.77;;;1.40;99.90;;;;;;5132862;27;20038;-74
2022/01/21 08:06:19;;;;;;;9.20;1.88;;;1.40;99.90;;;;;;5133299;27;20122;-74
2022/01/21 08:08:44;;;;;;;8.93;1.63;;;1.50;99.90;;;;;;5126107;27;20042;-74
2022/01/21 08:11:11;;;;;;;15.38;2.05;;;1.40;99.90;;;;;;5100145;27;20035;-74
2022/01/21 08:13:36;;;;;;;10.77;1.73;;;1.40;99.90;;;;;;5094993;27;20125;-74
2022/01/21 08:16:02;;;;;;;12.43;1.80;;;1.50;99.90;;;;;;5111547;27;20551;-75
2022/01/21 08:18:28;;;;;;;14.65;1.98;;;1.40;99.90;;;;;;5121340;27;20031;-74
2022/01/21 08:20:54;;;;;;;9.32;1.90;;;1.50;99.90;;;;;;5132259;27;20077;-74
2022/01/21 08:23:20;;;;;;;9.48;1.63;;;1.60;99.90;;;;;;5115325;27;20449;-74
2022/01/21 08:25:45;;;;;;;10.18;1.98;;;1.80;99.90;;;;;;5108397;28;20246;-74
2022/01/21 08:28:13;;;;;;;11.07;1.83;;;1.40;99.90;;;;;;5108523;28;20038;-74
2022/01/21 08:30:39;;;;;;;10.95;1.70;;;1.50;99.90;;;;;;5108400;28;20043;-74
2022/01/21 08:33:05;;;;;;;15.60;2.00;;;2.30;99.90;;;;;;5108927;28;20051;-74
2022/01/21 08:35:34;;;;;;;17.85;2.15;;;1.60;99.90;;;;;;5108704;28;20119;-74
2022/01/21 08:38:00;;;;;;;13.30;2.15;;;1.90;99.90;;;;;;5091494;28;20044;-74
2022/01/21 08:40:26;;;;;;;13.77;1.95;;;2.30;99.90;;;;;;5108711;28;20092;-74
2022/01/21 08:42:52;;;;;;;15.48;2.25;;;2.80;99.90;;;;;;5087303;28;20522;-74
2022/01/21 08:45:19;;;;;;;8.73;1.77;;;3.50;99.90;;;;;;5109050;28;20494;-74
2022/01/21 08:47:45;;;;;;;11.23;1.65;;;4.10;99.90;;;;;;5108110;28;20067;-75
2022/01/21 08:50:13;;;;;;;10.23;1.60;;;4.70;99.90;;;;;;5108683;28;20499;-74
2022/01/21 08:52:41;;;;;;;10.25;1.80;;;5.10;99.90;;;;;;5107936;28;20043;-74
2022/01/21 08:55:19;;;;;;;14.70;1.73;;;5.10;99.90;;;;;;5108501;28;20036;-74
2022/01/21 08:57:47;;;;;;;11.57;2.10;;;5.70;99.90;;;;;;5090847;28;20502;-74
2022/01/21 09:00:17;;;;;;;15.48;2.50;;;4.70;99.90;;;;;;5108552;28;20126;-75
2022/01/21 09:02:44;;;;;;;12.68;2.33;;;4.50;99.90;;;;;;5108225;28;20488;-74
2022/01/21 09:05:09;;;;;;;;;;;4.50;99.90;;;;;;5108794;28;20379;-74
2022/01/21 09:07:35;;;;;;;12.77;2.10;;;4.10;99.90;;;;;;5108006;28;19916;-74
2022/01/21 09:10:02;;;;;;;14.52;1.90;;;4.00;99.90;;;;;;5108468;28;20058;-74
2022/01/21 09:12:28;;;;;;;11.57;2.15;;;3.30;99.90;;;;;;5108185;28;20035;-74
2022/01/21 09:14:54;;;;;;;13.30;1.90;;;3.80;99.90;;;;;;5106925;28;20043;-74
2022/01/21 09:17:20;;;;;;;20.15;2.88;;;3.70;99.90;;;;;;5108314;28;20039;-74
2022/01/21 09:19:46;;;;;;;21.95;2.45;;;3.70;99.90;;;;;;5107600;28;20035;-74
2022/01/21 09:22:12;;;;;;;10.60;2.00;;;3.70;99.90;;;;;;5092754;27;20062;-74
2022/01/21 09:24:37;;;;;;;19.90;2.95;;;4.30;99.90;;;;;;5094219;27;20281;-74
2022/01/21 09:27:04;;;;;;;16.27;2.35;;;3.90;99.90;;;;;;5111709;27;20039;-74
2022/01/21 09:29:31;;;;;;;21.08;2.17;;;3.70;99.90;;;;;;5111554;27;20046;-74
2022/01/21 09:31:57;;;;;;;15.27;2.45;;;3.70;99.90;;;;;;5110841;27;20043;-74
2022/01/21 09:34:24;;;;;;;15.63;2.30;;;4.20;99.90;;;;;;5092270;27;20039;-74
2022/01/21 09:36:51;;;;;;;17.10;2.33;;;3.80;99.90;;;;;;5123856;27;20070;-74
2022/01/21 09:39:17;;;;;;;13.90;2.25;;;3.90;99.90;;;;;;5131825;27;20035;-74
2022/01/21 09:41:43;;;;;;;13.30;2.25;;;4.00;99.90;;;;;;5114344;27;20041;-74
2022/01/21 09:44:14;;;;;;;11.95;2.45;;;4.00;99.90;;;;;;5131597;27;20038;-74
2022/01/21 09:46:45;;;;;;;15.07;2.58;;;4.00;99.90;;;;;;5131039;27;20038;-74
2022/01/21 09:49:26;;;;;;;18.33;2.67;;;4.10;99.90;;;;;;5125429;27;20038;-73
2022/01/21 09:52:01;;;;;;;23.55;3.20;;;4.50;99.90;;;;;;5109475;27;20402;-73
2022/01/21 09:54:36;;;;;;;15.02;2.53;;;4.30;99.90;;;;;;5093839;27;20066;-74
2022/01/21 09:57:04;;;;;;;23.48;2.50;;;4.30;99.90;;;;;;5129225;27;20039;-74
2022/01/21 09:59:32;;;;;;;10.35;2.03;;;4.30;99.90;;;;;;5131577;27;20503;-74
2022/01/21 10:02:02;;;;;;;20.23;2.53;;;4.40;99.90;;;;;;5121598;27;20082;-75
2022/01/21 10:04:31;;;;;;;15.93;2.13;;;5.40;99.90;;;;;;5110801;27;20080;-75
2022/01/21 10:06:57;;;;;;;15.13;2.13;;;4.40;99.90;;;;;;5115958;27;20055;-75
2022/01/21 10:09:24;;;;;;;14.90;2.42;;;4.50;99.90;;;;;;5115421;27;20043;-75
2022/01/21 10:11:52;;;;;;;15.60;1.83;;;4.60;99.90;;;;;;5129144;27;20041;-75
2022/01/21 10:14:27;;;;;;;11.10;2.10;;;4.70;99.90;;;;;;5100736;27;20035;-75
2022/01/21 10:16:54;;;;;;;14.43;2.67;;;5.40;99.90;;;;;;5110451;27;20117;-75
2022/01/21 10:19:27;;;;;;;17.90;2.78;;;6.40;99.90;;;;;;5109358;27;20084;-75
2022/01/21 10:22:05;;;;;;;14.27;2.40;;;7.40;99.90;;;;;;5108886;27;20624;-76
2022/01/21 10:24:33;;;;;;;13.07;1.98;;;7.40;99.90;;;;;;5104976;28;20093;-75
2022/01/21 10:27:00;;;;;;;10.98;1.58;;;7.30;99.90;;;;;;5106535;28;20042;-75
2022/01/21 10:29:37;;;;;;;13.77;2.53;;;7.00;99.90;;;;;;5106488;28;20132;-76
2022/01/21 10:32:03;;;;;;;15.98;2.28;;;6.80;99.90;;;;;;5087980;28;20072;-75
2022/01/21 10:34:41;;;;;;;10.10;1.60;;;6.60;99.90;;;;;;5089974;28;20036;-75
2022/01/21 10:37:27;;;;;;;7.28;1.33;;;6.50;99.90;;;;;;5106905;28;20113;-75
2022/01/21 10:40:10;;;;;;;12.48;1.90;;;6.40;99.90;;;;;;5109733;28;20035;-75
2022/01/21 10:42:36;;;;;;;10.60;1.80;;;6.30;99.90;;;;;;5110690;28;20386;-74
2022/01/21 10:45:06;;;;;;;17.98;2.10;;;6.40;99.90;;;;;;5109978;28;20092;-75
2022/01/21 10:47:40;;;;;;;10.85;1.60;;;6.10;99.90;;;;;;5110318;28;20543;-75
2022/01/21 10:50:08;;;;;;;13.90;2.30;;;6.00;99.90;;;;;;5110732;28;20066;-75
2022/01/21 10:52:46;;;;;;;10.95;1.80;;;6.00;99.90;;;;;;5108414;28;20054;-75
2022/01/21 10:55:37;;;;;;;14.95;2.00;;;6.00;99.90;;;;;;5109472;28;20062;-74
2022/01/21 10:58:15;;;;;;;15.65;2.05;;;6.00;99.90;;;;;;5108038;28;20502;-75
2022/01/21 11:00:59;;;;;;;;;;;6.10;99.90;;;;;;5110411;28;20074;-75
2022/01/21 11:03:26;;;;;;;11.15;2.03;;;6.30;99.90;;;;;;5108055;28;20337;-75
2022/01/21 11:06:20;;;;;;;11.80;1.92;;;6.50;99.90;;;;;;5106707;28;20256;-75
2022/01/21 11:08:46;;;;;;;14.30;1.55;;;6.50;99.90;;;;;;5109232;28;20039;-75
2022/01/21 11:11:12;;;;;;;17.67;1.60;;;6.60;99.90;;;;;;5091462;28;20040;-75
2022/01/21 11:13:40;;;;;;;11.27;1.75;;;6.70;99.90;;;;;;5110092;28;20031;-75
2022/01/21 11:16:23;;;;;;;10.27;1.88;;;6.60;99.90;;;;;;5110154;28;20038;-75
2022/01/21 11:18:51;;;;;;;13.18;2.05;;;6.50;99.90;;;;;;5108056;28;20039;-76
2022/01/21 11:21:16;;;;;;;17.25;1.95;;;6.50;99.90;;;;;;5110361;28;20096;-76
2022/01/21 11:23:42;;;;;;;18.75;2.03;;;6.70;99.90;;;;;;5075778;28;20457;-75
2022/01/21 11:26:09;;;;;;;9.75;2.25;;;6.90;99.90;;;;;;5109957;27;20068;-74
2022/01/21 11:28:49;;;;;;;19.65;2.28;;;6.90;99.90;;;;;;5115288;27;20050;-74
2022/01/21 11:31:27;;;;;;;17.15;1.98;;;6.90;99.90;;;;;;5109944;28;20054;-74
2022/01/21 11:33:53;;;;;;;9.38;1.98;;;7.00;99.90;;;;;;5124766;27;20046;-74
2022/01/21 11:36:19;;;;;;;11.48;2.20;;;7.00;99.90;;;;;;5092783;28;20084;-74
2022/01/21 11:38:45;;;;;;;13.23;2.00;;;7.10;99.90;;;;;;5109333;28;20502;-75
2022/01/21 11:41:16;;;;;;;11.75;1.50;;;7.10;99.90;;;;;;5092750;28;20328;-74
2022/01/21 11:43:50;;;;;;;10.10;1.67;;;7.10;99.90;;;;;;5109768;28;20096;-74
2022/01/21 11:48:55;;;;;;;10.32;1.90;;;7.00;99.90;;;;;;5108553;28;20043;-75
2022/01/21 11:51:33;;;;;;;10.10;2.22;;;6.90;99.90;;;;;;5107067;28;20032;-75
2022/01/21 11:54:05;;;;;;;9.85;1.40;;;6.80;99.90;;;;;;5105651;28;20521;-74
2022/01/21 11:56:48;;;;;;;12.35;2.38;;;6.80;99.90;;;;;;5109135;28;20050;-74
2022/01/21 11:59:22;;;;;;;11.60;1.40;;;6.80;99.90;;;;;;5093217;28;20039;-75
2022/01/21 12:01:48;;;;;;;12.88;1.83;;;6.70;99.90;;;;;;5106811;28;20494;-74
2022/01/21 12:04:38;;;;;;;9.93;1.63;;;6.80;99.90;;;;;;5109142;28;20035;-74
2022/01/21 12:07:04;;;;;;;7.13;1.30;;;6.70;99.90;;;;;;5111160;27;20039;-74
2022/01/21 12:10:12;;;;;;;14.05;1.65;;;6.70;99.90;;;;;;5092575;28;20108;-74
2022/01/21 12:12:55;;;;;;;11.00;2.05;;;6.70;99.90;;;;;;5030620;28;20037;-74
2022/01/21 12:15:41;;;;;;;15.20;1.40;;;6.60;99.90;;;;;;5030449;28;20072;-74
2022/01/21 12:20:45;;;;;;;6.90;1.20;;;6.70;99.90;;;;;;5108921;28;20047;-74
2022/01/21 12:23:16;;;;;;;;;;;6.70;99.90;;;;;;5089281;28;20142;-74
2022/01/21 12:26:20;;;;;;;9.30;1.50;;;6.70;99.90;;;;;;5108083;28;19927;-74
2022/01/21 12:28:58;;;;;;;9.25;1.30;;;6.80;99.90;;;;;;5110537;27;20039;-74
2022/01/21 12:31:50;;;;;;;11.80;1.60;;;6.80;99.90;;;;;;5110774;27;20134;-74
2022/01/21 12:34:16;;;;;;;11.60;1.23;;;6.80;99.90;;;;;;5107464;28;20487;-74
2022/01/21 12:37:00;;;;;;;13.52;1.95;;;6.80;99.90;;;;;;5109193;27;20039;-74
2022/01/21 12:39:48;;;;;;;8.60;1.33;;;6.80;99.90;;;;;;5110730;27;20391;-74
2022/01/21 12:42:27;;;;;;;13.30;2.10;;;6.80;99.90;;;;;;5108821;28;20436;-74
2022/01/21 12:44:52;;;;;;;13.90;1.63;;;6.80;99.90;;;;;;5109249;27;20038;-74
2022/01/21 12:47:51;;;;;;;11.50;2.03;;;7.00;99.90;;;;;;5110398;27;20039;-74
2022/01/21 12:50:47;;;;;;;;;;;6.80;99.90;;;;;;5064106;27;20368;-74
2022/01/21 12:53:25;;;;;;;8.88;1.50;;;6.80;99.90;;;;;;5107433;28;19915;-74
2022/01/21 12:56:03;;;;;;;9.65;1.75;;;6.90;99.90;;;;;;5107320;28;20039;-75
2022/01/21 12:58:37;;;;;;;11.65;2.08;;;6.90;99.90;;;;;;5090105;28;20495;-75
2022/01/21 13:01:06;;;;;;;11.23;1.25;;;6.80;99.90;;;;;;5107755;28;20039;-75
2022/01/21 13:03:55;;;;;;;7.85;1.58;;;6.80;99.90;;;;;;5089192;28;20114;-75
2022/01/21 13:06:45;;;;;;;12.70;2.05;;;6.80;99.90;;;;;;5108805;27;20090;-75
2022/01/21 13:09:17;;;;;;;6.55;1.30;;;6.90;99.90;;;;;;5090864;28;20092;-76
2022/01/21 13:11:57;;;;;;;13.02;1.90;;;7.10;99.90;;;;;;5116426;27;20451;-75
2022/01/21 13:17:01;;;;;;;9.90;1.60;;;6.90;99.90;;;;;;5104574;27;20553;-76
2022/01/21 13:19:30;;;;;;;12.43;2.05;;;7.00;99.90;;;;;;5112257;27;20272;-75
2022/01/21 13:21:56;;;;;;;11.07;1.85;;;6.90;99.90;;;;;;5103267;27;20047;-75
2022/01/21 13:24:30;;;;;;;12.63;2.17;;;6.90;99.90;;;;;;5111944;27;20054;-75
2022/01/21 13:26:57;;;;;;;9.20;1.40;;;6.80;99.90;;;;;;5128615;27;20070;-77
2022/01/21 13:29:41;;;;;;;22.25;2.35;;;6.80;99.90;;;;;;5121769;27;20032;-76
2022/01/21 13:32:07;;;;;;;15.25;2.30;;;7.00;99.90;;;;;;5107894;28;20050;-76
2022/01/21 13:34:36;;;;;;;20.00;2.38;;;6.80;99.90;;;;;;5126040;27;20035;-75
2022/01/21 13:37:03;;;;;;;15.70;3.03;;;6.80;99.90;;;;;;5112915;27;20131;-75
2022/01/21 13:39:36;;;;;;;11.35;2.17;;;6.80;99.90;;;;;;5111467;27;20035;-75
2022/01/21 13:42:10;;;;;;;16.23;2.47;;;6.80;99.90;;;;;;5111383;27;20040;-75
2022/01/21 13:44:52;;;;;;;22.10;2.55;;;6.80;99.90;;;;;;5105536;28;20260;-76
2022/01/21 13:47:24;;;;;;;14.02;2.03;;;6.80;99.90;;;;;;5118859;27;20071;-75
2022/01/21 13:49:50;;;;;;;11.93;1.80;;;6.80;99.90;;;;;;5128324;28;20122;-76
2022/01/21 13:52:16;;;;;;;16.42;2.30;;;6.90;99.90;;;;;;5128254;28;20474;-75
2022/01/21 13:54:44;;;;;;;16.50;2.17;;;6.90;99.90;;;;;;5111182;28;20076;-75
2022/01/21 13:57:11;;;;;;;18.83;2.15;;;6.80;99.90;;;;;;5122817;28;20093;-75
2022/01/21 13:59:44;;;;;;;;;;;6.90;99.90;;;;;;5094872;28;20398;-75
2022/01/21 14:02:13;;;;;;;13.23;2.03;;;6.80;99.90;;;;;;5090151;28;20413;-75
2022/01/21 14:04:39;;;;;;;13.30;2.25;;;6.90;99.90;;;;;;5107397;28;20071;-76